CST,Max TemperatureF,Mean TemperatureF,Min TemperatureF,Max Dew PointF,MeanDew PointF,Min DewpointF,Max Humidity, Mean Humidity, Min Humidity, Max Sea Level PressureIn, Mean Sea Level PressureIn, Min Sea Level PressureIn, Max VisibilityMiles, Mean VisibilityMiles, Min VisibilityMiles, Max Wind SpeedMPH, Mean Wind SpeedMPH, Max Gust SpeedMPH,PrecipitationIn, CloudCover, Events, WindDirDegrees
2013-11-1,64,55,46,50,46,41,100,80,42,29.87,29.77,29.69,20,12,10,17,5,,0.00,1,,230
2013-11-2,53,46,37,45,40,36,100,77,54,30.20,30.02,29.86,20,12,10,17,2,,0.00,1,,289
2013-11-3,59,46,33,41,36,32,100,77,38,30.34,30.24,30.20,20,9,0,12,2,,0.00,0,Fog,139
2013-11-4,59,50,42,50,42,37,94,74,55,30.29,30.25,30.20,20,12,5,15,6,21,0.03,4,Rain,157
2013-11-5,64,57,50,50,48,45,100,73,52,30.33,30.21,30.11,20,10,2,18,5,26,0.01,6,Rain,159
2013-11-6,62,52,41,55,46,37,94,81,59,30.25,30.13,30.03,15,9,2,21,12,22,0.06,7,Rain,258
2013-11-7,51,42,33,39,35,28,100,80,43,30.41,30.32,30.26,20,12,10,12,2,,0.00,0,,266
2013-11-8,57,44,30,39,32,28,100,73,36,30.41,30.29,30.17,20,10,1,12,2,,0.00,0,,161
2013-11-9,64,52,41,46,41,34,93,71,45,30.23,30.17,30.13,20,12,10,18,8,25,0.00,0,,208
2013-11-10,57,45,33,45,36,30,93,74,38,30.43,30.33,30.23,20,12,10,12,3,,0.00,0,,312
2013-11-11,60,48,35,46,36,32,93,69,36,30.40,30.26,30.15,20,12,10,16,4,25,0.00,5,Rain,229
2013-11-12,39,32,23,34,24,19,93,73,48,30.72,30.61,30.41,20,12,5,18,10,26,0.01,4,Rain,350
2013-11-13,44,32,19,25,20,14,100,74,29,30.72,30.59,30.39,20,12,7,12,2,,0.00,0,,192
2013-11-14,53,40,28,25,22,21,75,52,28,30.39,30.26,30.13,20,12,10,17,8,23,0.00,1,,191
2013-11-15,51,45,39,48,35,23,94,63,40,30.14,30.08,30.02,20,12,10,12,7,17,0.00,5,,179
2013-11-16,66,58,50,63,55,48,94,87,77,30.02,29.90,29.74,20,11,2,25,13,34,0.36,8,Rain-Thunderstorm,180
2013-11-17,75,66,55,66,50,23,100,66,19,29.96,29.75,29.53,20,11,1,23,13,38,1.14,5,Rain-Thunderstorm,229
2013-11-18,57,45,33,39,35,27,93,69,31,30.30,30.16,29.97,20,13,10,16,4,21,0.00,0,,307
2013-11-19,46,38,30,32,29,27,93,79,50,30.37,30.29,30.23,20,12,4,7,2,,0.00,1,,45
2013-11-20,53,42,32,37,32,28,87,71,44,30.25,30.18,30.10,20,12,7,12,5,,0.00,2,,110
2013-11-21,53,50,48,54,45,36,100,78,58,30.21,30.17,30.13,10,6,1,14,5,18,0.02,7,Rain,159
2013-11-22,53,46,39,52,44,34,100,89,81,30.48,30.34,30.18,10,6,1,17,5,21,0.03,8,Rain,345
2013-11-23,39,31,23,34,23,10,93,71,44,30.70,30.57,30.47,20,12,10,17,9,25,0.00,5,,348
2013-11-24,32,24,17,18,12,9,73,61,41,30.76,30.64,30.48,20,13,10,12,7,,0.00,1,,28
2013-11-25,35,32,28,30,20,16,87,63,48,30.48,30.33,30.20,20,13,10,12,4,,0.00,7,,173
2013-11-26,39,32,26,45,25,10,87,69,47,30.21,30.14,30.03,20,12,10,17,5,28,0.00,7,,344
2013-11-27,30,24,17,14,10,5,80,60,34,30.37,30.29,30.19,20,12,10,17,9,26,0.00,0,,326
2013-11-28,44,30,17,27,18,10,93,69,39,30.49,30.39,30.31,20,12,10,17,5,,0.00,0,,185
2013-11-29,50,36,21,27,24,19,93,75,40,30.60,30.51,30.43,20,13,10,9,4,,0.00,0,,81
2013-11-30,53,40,28,32,29,25,87,66,41,30.42,30.30,30.17,20,12,10,14,5,,0.00,0,,189